sensor_id;sensor_type;location;lat;lon;timestamp;pressure;altitude;pressure_sealevel;temperature;humidity
71642;BME280;60657;50.122;14.468;2022-12-07T00:01:04;98060.70471581598;;;4.670786602578772;78.40909437705044
71642;BME280;60657;50.122;14.468;2022-12-07T00:04:21;98057.5469322671;;;4.772259098191803;78.14587624933242
71642;BME280;60657;50.122;14.468;2022-12-07T00:07:36;98060.91591253736;;;4.828336003662166;77.63088426031891
71642;BME280;60657;50.122;14.468;2022-12-07T00:10:52;98058.35425881388;;;4.777599755855647;78.0753032730602
71642;BME280;60657;50.122;14.468;2022-12-07T00:14:10;98065.66529258512;;;4.692149233234147;78.43579766536965
71642;BME280;60657;50.122;14.468;2022-12-07T00:17:28;98055.72044994112;;;4.692149233234147;78.3690394445716
71642;BME280;60657;50.122;14.468;2022-12-07T00:20:43;98058.09220249129;;;4.582665751125354;78.31372549019608
71642;BME280;60657;50.122;14.468;2022-12-07T00:23:59;98058.09220249129;;;4.590676737621116;78.19737544823377
71642;BME280;60657;50.122;14.468;2022-12-07T00:27:17;98057.26145240627;;;4.593347066453042;78.58648050659953
71642;BME280;60657;50.122;14.468;2022-12-07T00:30:33;98057.40568753643;;;4.713511863889522;78.53116655222401
71642;BME280;60657;50.122;14.468;2022-12-07T00:33:48;98059.09082508172;;;4.710841535057604;78.07911802853437
71642;BME280;60657;50.122;14.468;2022-12-07T00:37:04;98040.10417207298;;;4.710841535057604;78.55024032959487
71642;BME280;60657;50.122;14.468;2022-12-07T00:40:20;98043.42646732755;;;4.6787975890745415;78.24124513618678
71642;BME280;60657;50.122;14.468;2022-12-07T00:43:35;98052.39768562971;;;4.630731670099948;78.60746166170749
71642;BME280;60657;50.122;14.468;2022-12-07T00:46:51;98040.91124225197;;;4.68146791790646;78.72571908140688
71642;BME280;60657;50.122;14.468;2022-12-07T00:50:07;98033.48326120593;;;4.609369039444573;78.88403143358511
71642;BME280;60657;50.122;14.468;2022-12-07T00:53:23;98039.88962948925;;;4.555962462806136;79.38185702296482
71642;BME280;60657;50.122;14.468;2022-12-07T00:56:39;98040.72027128417;;;4.545281147478448;79.15297169451438
71642;BME280;60657;50.122;14.468;2022-12-07T00:59:54;98040.84025092101;;;4.630731670099948;79.10337987335012
71642;BME280;60657;50.122;14.468;2022-12-07T01:03:15;98039.15520714175;;;4.582665751125354;79.26550698100252
71642;BME280;60657;50.122;14.468;2022-12-07T01:06:32;98044.06700743805;;;4.579995422293429;79.15678644998856
71642;BME280;60657;50.122;14.468;2022-12-07T01:09:47;98044.8493360808;;;4.526588845654992;79.50965133134966
71642;BME280;60657;50.122;14.468;2022-12-07T01:13:03;98048.97849956174;;;4.545281147478448;79.19302662699322
71642;BME280;60657;50.122;14.468;2022-12-07T01:16:21;98047.2927620929;;;4.526588845654992;79.22354467078661
71642;BME280;60657;50.122;14.468;2022-12-07T01:19:39;98042.45375442012;;;4.612039368276491;79.43335622186618
71642;BME280;60657;50.122;14.468;2022-12-07T01:22:55;98045.68000999044;;;4.574654764629585;79.39711604486152
71642;BME280;60657;50.122;14.468;2022-12-07T01:26:11;98042.25959394623;;;4.502555886167698;79.62790875104906
71642;BME280;60657;50.122;14.468;2022-12-07T01:29:29;98044.77622619382;;;4.5105668726634605;79.17776760509652
71642;BME280;60657;50.122;14.468;2022-12-07T01:32:45;98047.92577944705;;;4.427786678873886;79.82055390249485
71642;BME280;60657;50.122;14.468;2022-12-07T01:36:01;98046.4376272411;;;4.563973449301898;79.42763408865491
71642;BME280;60657;50.122;14.468;2022-12-07T01:39:18;98039.03473027848;;;4.513237201495386;79.55352101930266
71642;BME280;60657;50.122;14.468;2022-12-07T01:42:34;98042.21022385503;;;4.4811932555123235;79.60883497367819
71642;BME280;60657;50.122;14.468;2022-12-07T01:45:50;98038.98595847802;;;4.513237201495386;79.31319142442969
71642;BME280;60657;50.122;14.468;2022-12-07T01:49:06;98041.42890315852;;;4.449149309529261;79.27885862516213
71642;BME280;60657;50.122;14.468;2022-12-07T01:52:28;98038.98595847802;;;4.515907530327304;79.23498893720912
71642;BME280;60657;50.122;14.468;2022-12-07T01:55:49;98025.84200875487;;;4.4811932555123235;79.21400778210116
71642;BME280;60657;50.122;14.468;2022-12-07T01:59:09;98031.55909548013;;;4.497215228503855;79.4905775539788
71642;BME280;60657;50.122;14.468;2022-12-07T02:02:26;98034.00206764534;;;4.4811932555123235;78.95460440985732
71642;BME280;60657;50.122;14.468;2022-12-07T02:05:46;98037.30011879753;;;4.465171282520792;79.1796749828336
71642;BME280;60657;50.122;14.468;2022-12-07T02:09:04;98026.59990278004;;;4.443808651865417;79.16632333867399
71642;BME280;60657;50.122;14.468;2022-12-07T02:12:20;98028.23669477325;;;4.483863584344242;79.23498893720912
71642;BME280;60657;50.122;14.468;2022-12-07T02:15:47;98031.55909548013;;;4.462500953688867;79.34752422369726
71642;BME280;60657;50.122;14.468;2022-12-07T02:19:25;98029.0672889693;;;4.47585259784848;78.94316014343481
71642;BME280;60657;50.122;14.468;2022-12-07T02:23:23;98035.66334864187;;;4.457160296025023;79.00228885328451
71642;BME280;60657;50.122;14.468;2022-12-07T02:27:01;98031.58343071729;;;4.473182269016554;78.97558556496529
71642;BME280;60657;50.122;14.468;2022-12-07T02:30:33;98033.17143312805;;;4.457160296025023;79.12436102845808
71642;BME280;60657;50.122;14.468;2022-12-07T02:34:00;98017.48819934197;;;4.427786678873886;79.19684138246738
71642;BME280;60657;50.122;14.468;2022-12-07T02:37:27;98032.24200089407;;;4.414435034714273;79.11482413977264
71642;BME280;60657;50.122;14.468;2022-12-07T02:40:54;98030.7770932105;;;4.486533913176167;79.13199053940643
71642;BME280;60657;50.122;14.468;2022-12-07T02:44:18;98034.05093787149;;;4.483863584344242;79.10147249561304
71642;BME280;60657;50.122;14.468;2022-12-07T02:47:39;98028.33366900259;;;4.507896543831542;78.58457312886244
71642;BME280;60657;50.122;14.468;2022-12-07T02:50:56;98033.36498770828;;;4.588006408789198;78.74670023651484
71642;BME280;60657;50.122;14.468;2022-12-07T02:54:12;98026.00869029669;;;4.588006408789198;78.59601739528496
71642;BME280;60657;50.122;14.468;2022-12-07T02:57:37;98025.93775345979;;;4.571984435797667;78.63988708323797
71642;BME280;60657;50.122;14.468;2022-12-07T03:01:10;98022.56795489906;;;4.5105668726634605;78.63988708323797
71642;BME280;60657;50.122;14.468;2022-12-07T03:04:45;98019.14925525202;;;4.417105363546199;79.04043640802625
71642;BME280;60657;50.122;14.468;2022-12-07T03:08:20;98013.38424566414;;;4.401083390554668;78.86305027847715
71642;BME280;60657;50.122;14.468;2022-12-07T03:11:43;98007.4977090378;;;4.358358129243918;79.33417257953765
71642;BME280;60657;50.122;14.468;2022-12-07T03:15:07;97994.40511623512;;;4.395742732890824;78.97940032043945
71642;BME280;60657;50.122;14.468;2022-12-07T03:18:34;98008.32819531525;;;4.320973525597012;79.34370946822308
71642;BME280;60657;50.122;14.468;2022-12-07T03:21:55;98005.86125474046;;;4.361028458075836;78.9584191653315
71642;BME280;60657;50.122;14.468;2022-12-07T03:25:16;97998.4361144562;;;4.355687800411992;78.8401617456321
71642;BME280;60657;50.122;14.468;2022-12-07T03:28:33;97988.66452471059;;;4.443808651865417;78.86877241168841
71642;BME280;60657;50.122;14.468;2022-12-07T03:31:54;97992.768388099;;;4.446478980697336;78.72190432593271
71642;BME280;60657;50.122;14.468;2022-12-07T03:35:19;97984.536869227;;;4.377050431067367;78.6780346379797
71642;BME280;60657;50.122;14.468;2022-12-07T03:38:42;97978.72504691558;;;4.377050431067367;78.8706797894255
71642;BME280;60657;50.122;14.468;2022-12-07T03:42:05;97975.54573274379;;;4.454489967193105;78.62844281681544
71642;BME280;60657;50.122;14.468;2022-12-07T03:45:26;97971.3243070308;;;4.387731746395055;78.82681010147249
71642;BME280;60657;50.122;14.468;2022-12-07T03:48:55;97968.97430672571;;;4.406424048218511;78.25078202487221
71642;BME280;60657;50.122;14.468;2022-12-07T03:52:22;97966.36691868774;;;4.345006485084305;78.37857633325704
71642;BME280;60657;50.122;14.468;2022-12-07T03:55:47;97967.95606895209;;;4.34767681391623;78.6932936598764
71642;BME280;60657;50.122;14.468;2022-12-07T03:59:06;97963.06994055296;;;4.294270237277793;78.62653543907835
71642;BME280;60657;50.122;14.468;2022-12-07T04:02:23;97970.44664582105;;;4.310292210269324;78.57122148470283
71642;BME280;60657;50.122;14.468;2022-12-07T04:05:42;97970.5412686705;;;4.374380102235449;78.58457312886244
71642;BME280;60657;50.122;14.468;2022-12-07T04:08:59;97968.07426297631;;;4.382391088731211;78.355687800412
71642;BME280;60657;50.122;14.468;2022-12-07T04:12:15;97965.70008790151;;;4.443808651865417;78.311818112459
71642;BME280;60657;50.122;14.468;2022-12-07T04:15:30;97973.03178317813;;;4.369039444571605;78.38239108873121
71642;BME280;60657;50.122;14.468;2022-12-07T04:18:46;97967.31406517836;;;4.379720759899293;77.97230487525749
71642;BME280;60657;50.122;14.468;2022-12-07T04:22:02;97966.36691868774;;;4.379720759899293;77.74532692454413
71642;BME280;60657;50.122;14.468;2022-12-07T04:25:19;97958.96638540931;;;4.374380102235449;78.2374303807126
71642;BME280;60657;50.122;14.468;2022-12-07T04:28:35;97964.80047594747;;;4.435797665369648;77.38864728770886
71642;BME280;60657;50.122;14.468;2022-12-07T04:31:51;97963.16353108687;;;4.398413061722742;77.75867856870374
71642;BME280;60657;50.122;14.468;2022-12-07T04:35:07;97968.88094560844;;;4.34767681391623;77.56603341725796
71642;BME280;60657;50.122;14.468;2022-12-07T04:38:24;97963.04633555553;;;4.328984512092774;77.46875715266651
71642;BME280;60657;50.122;14.468;2022-12-07T04:41:39;97958.13629411535;;;4.350347142748149;77.36575875486382
71642;BME280;60657;50.122;14.468;2022-12-07T04:44:55;97963.02264762447;;;4.328984512092774;77.54314488441291
71642;BME280;60657;50.122;14.468;2022-12-07T04:48:13;97967.07801014319;;;4.288929579613949;77.70908674753949
71642;BME280;60657;50.122;14.468;2022-12-07T04:51:28;97963.68471569866;;;4.243533989471274;78.0009155413138
71642;BME280;60657;50.122;14.468;2022-12-07T04:54:44;97965.22267599478;;;4.150072480354012;77.9856565194171
71642;BME280;60657;50.122;14.468;2022-12-07T04:58:00;97957.06751123509;;;4.142061493858243;77.83688105592431
71642;BME280;60657;50.122;14.468;2022-12-07T05:01:16;97967.56392008417;;;4.03257801174945;78.19546807049669
71642;BME280;60657;50.122;14.468;2022-12-07T05:04:33;97967.41139611036;;;3.915083543144881;78.2069123369192
71642;BME280;60657;50.122;14.468;2022-12-07T05:07:49;97963.15611528615;;;3.877698939497975;78.53307392996109
71642;BME280;60657;50.122;14.468;2022-12-07T05:11:04;97961.4953664514;;;3.8456549935149127;78.51972228580148
71642;BME280;60657;50.122;14.468;2022-12-07T05:14:21;97972.6679522098;;;3.6881055924315262;78.93171587701228
71642;BME280;60657;50.122;14.468;2022-12-07T05:17:36;97968.59697807266;;;3.7121385519188195;78.87830930037384
71642;BME280;60657;50.122;14.468;2022-12-07T05:20:52;97960.31915869919;;;3.685435263599601;78.84779125658045
71642;BME280;60657;50.122;14.468;2022-12-07T05:24:09;97969.29079632292;;;3.6533913176165385;78.79247730220493
71642;BME280;60657;50.122;14.468;2022-12-07T05:27:28;97966.66022818179;;;3.5519188220035076;78.99275196459907
71642;BME280;60657;50.122;14.468;2022-12-07T05:30:44;97969.12402378028;;;3.546578164339664;79.14724956130313
71642;BME280;60657;50.122;14.468;2022-12-07T05:33:59;97961.67674145516;;;3.5439078355077456;78.8554207675288
71642;BME280;60657;50.122;14.468;2022-12-07T05:37:15;97951.82206355424;;;3.517204547188527;78.97558556496529
71642;BME280;60657;50.122;14.468;2022-12-07T05:40:31;97958.95794705332;;;3.3970397497520395;78.96986343175402
71642;BME280;60657;50.122;14.468;2022-12-07T05:43:46;97949.24677136292;;;3.5011825741969957;78.9717708094911
71642;BME280;60657;50.122;14.468;2022-12-07T05:47:02;97962.30911068298;;;3.399710078583965;78.3842984664683
71642;BME280;60657;50.122;14.468;2022-12-07T05:50:18;97961.33439254569;;;3.3676661326009025;78.7810330357824
71642;BME280;60657;50.122;14.468;2022-12-07T05:53:34;97958.9291872962;;;3.3596551461051334;78.65133134966048
71642;BME280;60657;50.122;14.468;2022-12-07T05:56:50;97967.92176428334;;;3.3730067902647463;78.04287785152972
71642;BME280;60657;50.122;14.468;2022-12-07T06:00:06;97962.13600285527;;;3.327611200122071;77.87121385519188
71642;BME280;60657;50.122;14.468;2022-12-07T06:03:22;97977.62602896494;;;3.239490348668653;77.99900816357672
71642;BME280;60657;50.122;14.468;2022-12-07T06:06:38;97961.2176343243;;;3.2795452811474775;78.22598611429008
71642;BME280;60657;50.122;14.468;2022-12-07T06:09:54;97955.46150239516;;;3.2795452811474775;78.26413366903182
71642;BME280;60657;50.122;14.468;2022-12-07T06:13:09;97969.22795217647;;;3.188754100862134;78.39002059967956
71642;BME280;60657;50.122;14.468;2022-12-07T06:16:25;97969.81540609423;;;3.092622262912947;78.71808957045853
71642;BME280;60657;50.122;14.468;2022-12-07T06:19:41;97962.52103695116;;;3.143358510719466;78.21835660334173
71642;BME280;60657;50.122;14.468;2022-12-07T06:22:57;97961.56823102459;;;3.055237659266041;78.81155107957579
71642;BME280;60657;50.122;14.468;2022-12-07T06:26:13;97965.72243635195;;;3.0872816052491032;78.54833295185779
71642;BME280;60657;50.122;14.468;2022-12-07T06:29:28;97962.49066738001;;;3.135347524223697;78.28702220187687
71642;BME280;60657;50.122;14.468;2022-12-07T06:32:44;97969.75373985917;;;3.0178530556191348;78.08102540627146
71642;BME280;60657;50.122;14.468;2022-12-07T06:36:00;97960.48937169049;;;2.9056992446784164;78.49874113069352
71642;BME280;60657;50.122;14.468;2022-12-07T06:39:15;97957.96531796682;;;2.8763256275272724;78.43579766536965
71642;BME280;60657;50.122;14.468;2022-12-07T06:42:31;97967.0108938848;;;2.9083695735103348;78.43389028763256
71642;BME280;60657;50.122;14.468;2022-12-07T06:45:47;97962.11980346405;;;2.895017929350729;78.55405508506905
71642;BME280;60657;50.122;14.468;2022-12-07T06:49:02;97956.4598014067;;;2.9510948348210846;78.12680247196155
71642;BME280;60657;50.122;14.468;2022-12-07T06:52:19;97968.0299129858;;;2.9564354924849283;77.98184176394292
71642;BME280;60657;50.122;14.468;2022-12-07T06:55:35;97967.81021948364;;;2.8763256275272724;77.75486381322958
71642;BME280;60657;50.122;14.468;2022-12-07T06:58:50;97963.75020108742;;;2.916380560006104;77.93224994277867
71642;BME280;60657;50.122;14.468;2022-12-07T07:02:07;97973.65866725064;;;2.9564354924849283;78.10200656137941
71642;BME280;60657;50.122;14.468;2022-12-07T07:05:25;97964.76839175791;;;3.033875028610666;77.95895323109788
71642;BME280;60657;50.122;14.468;2022-12-07T07:08:43;97971.62983153055;;;3.196765087357903;78.25268940260929
71642;BME280;60657;50.122;14.468;2022-12-07T07:11:59;97969.37741648735;;;3.247501335164415;77.34668497749294
71642;BME280;60657;50.122;14.468;2022-12-07T07:15:15;97961.36337575607;;;3.3970397497520395;76.87747005416952
71642;BME280;60657;50.122;14.468;2022-12-07T07:18:31;97963.1682965991;;;3.4344243533989456;76.51888303959716
71642;BME280;60657;50.122;14.468;2022-12-07T07:21:46;97963.36586365524;;;3.5358968490119764;76.05539024948501
71642;BME280;60657;50.122;14.468;2022-12-07T07:25:02;97961.53554125963;;;3.4264133669031835;76.00007629510948
71642;BME280;60657;50.122;14.468;2022-12-07T07:28:18;97951.48251538866;;;3.327611200122071;76.02296482795452
71642;BME280;60657;50.122;14.468;2022-12-07T07:31:34;97949.70546344089;;;3.2154573891813527;76.11070420386054
71642;BME280;60657;50.122;14.468;2022-12-07T07:34:50;97969.34768861822;;;3.1834134431982903;76.41588464179446
71642;BME280;60657;50.122;14.468;2022-12-07T07:38:06;97972.67086832758;;;3.26886396581979;76.3205157549401
71642;BME280;60657;50.122;14.468;2022-12-07T07:41:22;97969.29079632292;;;3.6320286869611635;74.94720378423743
71642;BME280;60657;50.122;14.468;2022-12-07T07:44:38;97969.85105692434;;;3.9391165026321815;73.85999847409781
71642;BME280;60657;50.122;14.468;2022-12-07T07:47:54;97972.62089111707;;;4.158083466849774;73.48996719310293
71642;BME280;60657;50.122;14.468;2022-12-07T07:51:10;97966.48395038521;;;4.465171282520792;72.3588921950103
71642;BME280;60657;50.122;14.468;2022-12-07T07:54:26;97965.97060573967;;;4.6868085755703035;71.58449683375295
71642;BME280;60657;50.122;14.468;2022-12-07T07:57:42;97959.10733071073;;;5.114061188677809;70.34660868238346
71642;BME280;60657;50.122;14.468;2022-12-07T08:01:02;97954.59702289451;;;5.418478675516901;69.43106736858168
71642;BME280;60657;50.122;14.468;2022-12-07T08:04:19;97966.2102404551;;;5.410467689021132;68.31525139238575
71642;BME280;60657;50.122;14.468;2022-12-07T08:07:35;97958.99964886399;;;5.642786297398338;67.8212405584802
71642;BME280;60657;50.122;14.468;2022-12-07T08:10:51;97970.89674551915;;;5.116731517509727;69.40436408026245
71642;BME280;60657;50.122;14.468;2022-12-07T08:14:06;97961.37495298573;;;4.836346990157928;70.30846112764172
71642;BME280;60657;50.122;14.468;2022-12-07T08:17:22;97971.55663399617;;;4.4224460212100425;71.63218127718014
71642;BME280;60657;50.122;14.468;2022-12-07T08:20:38;97973.69573110963;;;4.262226291294731;72.24635690852216
71642;BME280;60657;50.122;14.468;2022-12-07T08:23:55;97971.91395514934;;;4.1607537956817;72.61066605630579
71642;BME280;60657;50.122;14.468;2022-12-07T08:27:12;97985.577792619;;;3.9898527504386934;73.18097199969482
71642;BME280;60657;50.122;14.468;2022-12-07T08:30:28;97976.39069585841;;;3.9551384756237127;73.96108949416342
71642;BME280;60657;50.122;14.468;2022-12-07T08:33:44;97978.61743360228;;;3.738841840238038;75.20088502327
71642;BME280;60657;50.122;14.468;2022-12-07T08:37:01;97971.7549441409;;;3.562600137331195;75.89135576409552
71642;BME280;60657;50.122;14.468;2022-12-07T08:40:17;97974.05162125676;;;3.546578164339664;76.68101014724957
71642;BME280;60657;50.122;14.468;2022-12-07T08:43:33;97974.91038753149;;;3.5946440833142574;76.56275272755016
71642;BME280;60657;50.122;14.468;2022-12-07T08:46:49;97981.38619771918;;;3.5198748760204452;76.73823147936217
71642;BME280;60657;50.122;14.468;2022-12-07T08:50:11;97984.04777569989;;;3.6614023041123076;76.16029602502479
71642;BME280;60657;50.122;14.468;2022-12-07T08:53:29;97972.41845695834;;;3.5599298084992768;75.90089265278095
71642;BME280;60657;50.122;14.468;2022-12-07T08:56:45;97976.62763566406;;;3.6480506599526947;76.53414206149385
71642;BME280;60657;50.122;14.468;2022-12-07T09:00:05;97975.07731585734;;;3.714808880750745;75.9981689173724
71642;BME280;60657;50.122;14.468;2022-12-07T09:03:23;97979.28527125482;;;3.7254901960784323;75.6433966582742
71642;BME280;60657;50.122;14.468;2022-12-07T09:06:38;97979.28527125482;;;3.7254901960784323;75.54612039368277
71642;BME280;60657;50.122;14.468;2022-12-07T09:09:54;97981.69470210916;;;3.722819867246507;75.27718013275349
71642;BME280;60657;50.122;14.468;2022-12-07T09:13:10;97974.54511090445;;;3.9017318989852754;75.12458991378652
71642;BME280;60657;50.122;14.468;2022-12-07T09:16:26;97986.89631565729;;;3.8456549935149127;75.07118333714809
71642;BME280;60657;50.122;14.468;2022-12-07T09:19:41;97981.37352068022;;;4.00854505226215;74.53521019302663
71642;BME280;60657;50.122;14.468;2022-12-07T09:22:57;97974.80769137318;;;4.000534065766388;74.76218814373999
71642;BME280;60657;50.122;14.468;2022-12-07T09:26:13;97983.08635099794;;;3.995193408102537;74.3330281528954
71642;BME280;60657;50.122;14.468;2022-12-07T09:29:29;97974.18143574982;;;4.123369192034794;74.01831082627604
71642;BME280;60657;50.122;14.468;2022-12-07T09:32:44;97976.04089443832;;;4.230182345311668;73.92675669489586
71642;BME280;60657;50.122;14.468;2022-12-07T09:36:03;97962.97502298566;;;4.307621881437399;74.10605020218205
71642;BME280;60657;50.122;14.468;2022-12-07T09:39:19;97963.80518733346;;;4.326314183260855;73.5529106584268
71642;BME280;60657;50.122;14.468;2022-12-07T09:42:36;97956.52288391942;;;4.395742732890824;74.214770733196
71642;BME280;60657;50.122;14.468;2022-12-07T09:45:54;97964.91593028182;;;4.465171282520792;73.71694514381628
71642;BME280;60657;50.122;14.468;2022-12-07T09:49:12;97955.71608495535;;;4.353017471580074;73.64446478980697
71642;BME280;60657;50.122;14.468;2022-12-07T09:52:33;97968.00359538385;;;4.369039444571605;73.78942549782559
71642;BME280;60657;50.122;14.468;2022-12-07T09:55:49;97960.76561997893;;;4.435797665369648;73.71313038834211
71642;BME280;60657;50.122;14.468;2022-12-07T09:59:05;97969.02048944912;;;4.505226214999617;73.74746318760967
71642;BME280;60657;50.122;14.468;2022-12-07T10:02:23;97955.04661643447;;;4.507896543831542;73.91912718394751
71642;BME280;60657;50.122;14.468;2022-12-07T10:05:50;97946.74690185612;;;4.382391088731211;74.1556420233463
71642;BME280;60657;50.122;14.468;2022-12-07T10:09:08;97953.20265607101;;;4.36636911573968;73.92294193942168
71642;BME280;60657;50.122;14.468;2022-12-07T10:12:25;97948.31528707425;;;4.419775692378117;74.03166247043565
71642;BME280;60657;50.122;14.468;2022-12-07T10:15:44;97954.0791848262;;;4.401083390554668;74.38261997405966
71642;BME280;60657;50.122;14.468;2022-12-07T10:19:17;97940.08457826347;;;4.382391088731211;74.08697642481117
71642;BME280;60657;50.122;14.468;2022-12-07T10:22:35;97940.35316915448;;;4.625391012436104;73.8180361638819
71642;BME280;60657;50.122;14.468;2022-12-07T10:25:51;97942.99366001427;;;4.761577782864116;73.39459830624857
71642;BME280;60657;50.122;14.468;2022-12-07T10:29:13;97943.01489702756;;;4.726863508049135;73.14663920042726
71642;BME280;60657;50.122;14.468;2022-12-07T10:32:33;97938.88726417189;;;4.7375448233768225;73.43846799420157
71642;BME280;60657;50.122;14.468;2022-12-07T10:35:51;97939.82170157977;;;4.758907454032197;73.3736171511406
71642;BME280;60657;50.122;14.468;2022-12-07T10:39:11;97932.39591241826;;;4.721522850385291;73.31830319676509
71642;BME280;60657;50.122;14.468;2022-12-07T10:42:32;97937.31179269485;;;4.772259098191803;73.49568932631418
71642;BME280;60657;50.122;14.468;2022-12-07T10:46:07;97927.43868184288;;;4.7375448233768225;73.37743190661479
71642;BME280;60657;50.122;14.468;2022-12-07T10:49:50;97938.99199335174;;;4.726863508049135;73.80468451972229
71642;BME280;60657;50.122;14.468;2022-12-07T10:53:30;97934.19754908992;;;4.881742580300603;73.31448844129092
71642;BME280;60657;50.122;14.468;2022-12-07T10:57:04;97935.77601657672;;;4.822995345998322;73.63302052338445
71642;BME280;60657;50.122;14.468;2022-12-07T11:00:43;97934.92596414032;;;4.769588769359885;73.59296559090562
71642;BME280;60657;50.122;14.468;2022-12-07T11:04:15;97922.58342359232;;;4.814984359502553;73.57389181353476
71642;BME280;60657;50.122;14.468;2022-12-07T11:07:43;97914.2474554794;;;4.590676737621116;74.1117723353933
71642;BME280;60657;50.122;14.468;2022-12-07T11:11:13;97920.9645029153;;;4.839017318989853;74.13275349050126
71642;BME280;60657;50.122;14.468;2022-12-07T11:14:41;97912.8274606927;;;4.873731593804834;73.91340505073624
71642;BME280;60657;50.122;14.468;2022-12-07T11:18:10;97907.19355534362;;;5.028610666056309;74.20523384451057
71642;BME280;60657;50.122;14.468;2022-12-07T11:21:39;97901.55414692646;;;5.151445792324715;74.04692149233234
71642;BME280;60657;50.122;14.468;2022-12-07T11:25:11;97895.23296450108;;;5.389105058365757;73.94010833905547
71642;BME280;60657;50.122;14.468;2022-12-07T11:28:40;97896.20802318017;;;5.503929198138401;72.78805218585488
71642;BME280;60657;50.122;14.468;2022-12-07T11:32:14;97884.06242896282;;;5.6828412298771624;71.87060349431601
71642;BME280;60657;50.122;14.468;2022-12-07T11:35:44;97884.16110702972;;;5.7709620813305875;71.70656900892652
71642;BME280;60657;50.122;14.468;2022-12-07T11:39:14;97881.75652959611;;;5.875104905775537;70.98176546883344
71642;BME280;60657;50.122;14.468;2022-12-07T11:42:41;97885.88638991762;;;5.853742275120162;70.63271534294651
71642;BME280;60657;50.122;14.468;2022-12-07T11:46:03;97871.28312651713;;;6.168841077286949;70.20737010757611
71642;BME280;60657;50.122;14.468;2022-12-07T11:49:27;97876.6335895701;;;6.724269474326697;68.82070649271381
71642;BME280;60657;50.122;14.468;2022-12-07T11:52:57;97857.12967359042;;;7.522697795071338;66.60814831769284
71642;BME280;60657;50.122;14.468;2022-12-07T11:56:19;97863.77729730998;;;8.139543755245292;63.94926375219349
71642;BME280;60657;50.122;14.468;2022-12-07T11:59:39;97848.62936701317;;;9.047455558098726;62.442435339894715
71642;BME280;60657;50.122;14.468;2022-12-07T12:03:03;97834.89062651951;;;9.885938811322191;58.41786831464103
71642;BME280;60657;50.122;14.468;2022-12-07T12:06:27;97830.48896316861;;;10.072861829556729;57.250553139543754